Nearby METAR Reports

 

ENRY - Rygge (nor-Afb), Norway
Distance from station: 0 24km
Updated: 17/06/2024 15:50
Partly cloudy
Partly cloudy
 Wind from SSW
Wind: SSW 19 km/h
Temperature: 16°C
Dew Point: 10°C
Humidity: 68%
Barometer: 1010 hPa
Clouds: Partly cloudy
Visibility: 10 km
Cloud details: Few Clouds 579 m
Partly cloudy 671 m
2024/06/17 13:50 ENRY 171350Z 20010KT 170V240 9999 FEW019 SCT022 16/10 Q1010
ENTO - Torp (civ/Nor-Af, Norway
Distance from station: W 29km
Updated: 17/06/2024 15:50
Partly cloudy
Partly cloudy
 Wind from S
Wind: S 19 km/h
Temperature: 16°C
Dew Point: 10°C
Humidity: 68%
Barometer: 1010 hPa
Clouds: Partly cloudy
Visibility: 10 km
Cloud details: Partly cloudy 610 m
2024/06/17 13:50 ENTO 171350Z 19010KT 150V220 9999 SCT020 16/10 Q1010 NOSIG
 
ENSN - Skien/Geiterygge, Norway
Distance from station: W 68km
Updated: 09/11/2015 09:50
NOT Current
Clear
Clear
 Wind from SSW
Wind: SSW 19 km/h, Gust: 41 km/h
Temperature: 7°C
Wind Chill: 4°C
Dew Point: 3°C
Humidity: 76%
Barometer: 1000 hPa
Summary: Clear
Visibility: greater than 10 km
2015/11/09 08:50 ENSN 090850Z 20010G22KT 150V240 CAVOK 07/03 Q1000